createdAt,value
2022-11-22T00:00:29.434Z,973.52
2022-11-22T00:01:29.430Z,973.60
2022-11-22T00:02:29.474Z,973.54
2022-11-22T00:03:29.443Z,973.52
2022-11-22T00:04:29.411Z,973.44
2022-11-22T00:05:29.402Z,973.45
2022-11-22T00:06:29.393Z,973.47
2022-11-22T00:07:29.429Z,973.50
2022-11-22T00:08:29.396Z,973.49
2022-11-22T00:09:29.671Z,973.44
2022-11-22T00:10:29.357Z,973.44
2022-11-22T00:11:29.347Z,973.48
2022-11-22T00:12:29.335Z,973.48
2022-11-22T00:13:29.365Z,973.42
2022-11-22T00:14:29.322Z,973.38
2022-11-22T00:15:29.320Z,973.35
2022-11-22T00:16:29.308Z,973.34
2022-11-22T00:17:29.300Z,973.30
2022-11-22T00:18:29.315Z,973.29
2022-11-22T00:19:29.479Z,973.30
2022-11-22T00:20:29.284Z,973.26
2022-11-22T00:21:29.259Z,973.20
2022-11-22T00:22:29.259Z,973.25
2022-11-22T00:23:29.279Z,973.20
2022-11-22T00:24:29.237Z,973.16
2022-11-22T00:25:29.234Z,973.16
2022-11-22T00:26:29.223Z,973.22
2022-11-22T00:27:29.221Z,973.22
2022-11-22T00:28:29.234Z,973.14
2022-11-22T00:29:29.528Z,973.20
2022-11-22T00:30:29.197Z,973.13
2022-11-22T00:31:29.186Z,973.11
2022-11-22T00:32:29.177Z,973.18
2022-11-22T00:33:29.202Z,973.12
2022-11-22T00:34:29.164Z,973.10
2022-11-22T00:35:29.155Z,973.09
2022-11-22T00:36:29.148Z,973.06
2022-11-22T00:37:29.135Z,973.05
2022-11-22T00:38:29.134Z,973.06
2022-11-22T00:39:29.563Z,973.07
2022-11-22T00:40:29.121Z,973.08
2022-11-22T00:41:29.111Z,973.03
2022-11-22T00:42:29.113Z,973.03
2022-11-22T00:43:30.092Z,973.05
2022-11-22T00:44:29.114Z,973.07
2022-11-22T00:45:29.082Z,973.03
2022-11-22T00:46:29.071Z,973.11
2022-11-22T00:47:29.065Z,973.03
2022-11-22T00:48:29.053Z,973.03
2022-11-22T00:49:29.576Z,973.05
2022-11-22T00:50:29.038Z,972.99
2022-11-22T00:51:29.036Z,972.97
2022-11-22T00:52:29.033Z,972.99
2022-11-22T00:53:29.019Z,972.98
2022-11-22T00:54:29.037Z,973.05
2022-11-22T00:55:29.007Z,973.03
2022-11-22T00:56:28.993Z,973.01
2022-11-22T00:57:28.983Z,972.98
2022-11-22T00:58:28.979Z,973.02
2022-11-22T00:59:29.218Z,973.02
2022-11-22T01:00:28.960Z,972.99
2022-11-22T01:01:29.087Z,973.01
2022-11-22T01:02:28.943Z,973.03
2022-11-22T01:03:28.937Z,973.00
2022-11-22T01:04:28.968Z,972.93
2022-11-22T01:05:28.922Z,972.96
2022-11-22T01:06:28.916Z,972.90
2022-11-22T01:07:28.946Z,972.92
2022-11-22T01:08:28.896Z,972.87
2022-11-22T01:09:29.078Z,972.86
2022-11-22T01:10:28.886Z,972.84
2022-11-22T01:11:28.874Z,972.82
2022-11-22T01:12:28.866Z,972.85
2022-11-22T01:13:28.860Z,972.78
2022-11-22T01:14:28.877Z,972.79
2022-11-22T01:15:28.840Z,972.80
2022-11-22T01:16:28.828Z,972.80
2022-11-22T01:17:28.824Z,972.73
2022-11-22T01:18:28.814Z,972.67
2022-11-22T01:19:29.135Z,972.76
2022-11-22T01:20:28.801Z,972.66
2022-11-22T01:21:28.795Z,972.66
2022-11-22T01:22:28.786Z,972.65
2022-11-22T01:23:28.777Z,972.68
2022-11-22T01:24:28.804Z,972.61
2022-11-22T01:25:28.763Z,972.66
2022-11-22T01:26:28.755Z,972.59
2022-11-22T01:27:28.750Z,972.60
2022-11-22T01:28:28.740Z,972.57
2022-11-22T01:29:29.033Z,972.60
2022-11-22T01:30:28.719Z,972.55
2022-11-22T01:31:28.729Z,972.57
2022-11-22T01:32:28.705Z,972.52
2022-11-22T01:33:28.699Z,972.53
2022-11-22T01:34:28.691Z,972.58
2022-11-22T01:35:28.709Z,972.53
2022-11-22T01:36:28.674Z,972.58
2022-11-22T01:37:28.669Z,972.57
2022-11-22T01:38:28.659Z,972.61
2022-11-22T01:39:28.950Z,972.51
2022-11-22T01:40:28.664Z,972.49
2022-11-22T01:41:28.633Z,972.51
2022-11-22T01:42:28.623Z,972.54
2022-11-22T01:43:28.619Z,972.55
2022-11-22T01:44:28.607Z,972.63
2022-11-22T01:45:28.626Z,972.54
2022-11-22T01:46:28.595Z,972.67
2022-11-22T01:47:28.586Z,972.66
2022-11-22T01:48:28.580Z,972.63
2022-11-22T01:49:28.919Z,972.60
2022-11-22T01:50:28.588Z,972.62
2022-11-22T01:51:28.558Z,972.68
2022-11-22T01:52:28.545Z,972.59
2022-11-22T01:53:28.542Z,972.59
2022-11-22T01:54:28.531Z,972.56
2022-11-22T01:55:28.550Z,972.53
2022-11-22T01:56:28.519Z,972.64
2022-11-22T01:57:28.506Z,972.72
2022-11-22T01:58:28.498Z,972.59
2022-11-22T01:59:28.787Z,972.55
2022-11-22T02:00:28.512Z,972.59
2022-11-22T02:01:28.607Z,972.69
2022-11-22T02:02:28.468Z,972.59
2022-11-22T02:03:28.460Z,972.56
2022-11-22T02:04:28.455Z,972.61
2022-11-22T02:05:28.472Z,972.66
2022-11-22T02:06:28.436Z,972.61
2022-11-22T02:07:28.472Z,972.56
2022-11-22T02:08:28.424Z,972.57
2022-11-22T02:09:28.591Z,972.61
2022-11-22T02:10:28.434Z,972.60
2022-11-22T02:11:32.639Z,972.62
2022-11-22T02:12:30.391Z,972.57
2022-11-22T02:13:28.378Z,972.59
2022-11-22T02:14:28.371Z,972.61
2022-11-22T02:15:28.396Z,972.55
2022-11-22T02:16:28.359Z,972.53
2022-11-22T02:17:28.350Z,972.53
2022-11-22T02:18:28.339Z,972.49
2022-11-22T02:19:28.568Z,972.44
2022-11-22T02:20:28.349Z,972.45
2022-11-22T02:21:28.315Z,972.41
2022-11-22T02:22:28.313Z,972.37
2022-11-22T02:23:28.297Z,972.47
2022-11-22T02:24:28.287Z,972.48
2022-11-22T02:25:28.299Z,972.49
2022-11-22T02:26:28.273Z,972.50
2022-11-22T02:27:28.262Z,972.45
2022-11-22T02:28:28.260Z,972.38
2022-11-22T02:29:28.581Z,972.41
2022-11-22T02:30:28.269Z,972.40
2022-11-22T02:31:28.236Z,972.43
2022-11-22T02:32:28.222Z,972.33
2022-11-22T02:33:28.215Z,972.38
2022-11-22T02:34:28.203Z,972.35
2022-11-22T02:35:28.225Z,972.37
2022-11-22T02:36:28.191Z,972.41
2022-11-22T02:37:28.183Z,972.39
2022-11-22T02:38:28.174Z,972.45
2022-11-22T02:39:28.469Z,972.44
2022-11-22T02:40:28.192Z,972.44
2022-11-22T02:41:28.147Z,972.46
2022-11-22T02:42:28.145Z,972.36
2022-11-22T02:43:28.138Z,972.48
2022-11-22T02:44:28.132Z,972.53
2022-11-22T02:45:28.145Z,972.51
2022-11-22T02:46:28.112Z,972.51
2022-11-22T02:47:28.107Z,972.59
2022-11-22T02:48:28.097Z,972.56
2022-11-22T02:49:28.659Z,972.69
2022-11-22T02:50:28.110Z,972.69
2022-11-22T02:51:28.073Z,972.68
2022-11-22T02:52:28.068Z,972.68
2022-11-22T02:53:28.058Z,972.67
2022-11-22T02:54:28.052Z,972.72
2022-11-22T02:55:28.075Z,972.74
2022-11-22T02:56:28.040Z,972.69
2022-11-22T02:57:28.027Z,972.69
2022-11-22T02:58:28.022Z,972.64
2022-11-22T02:59:28.373Z,972.61
2022-11-22T03:00:28.032Z,972.68
2022-11-22T03:01:28.033Z,972.63
2022-11-22T03:02:27.999Z,972.57
2022-11-22T03:03:27.980Z,972.55
2022-11-22T03:04:27.963Z,972.52
2022-11-22T03:05:28.991Z,972.57
2022-11-22T03:06:27.953Z,972.50
2022-11-22T03:07:27.989Z,972.51
2022-11-22T03:08:27.940Z,972.52
2022-11-22T03:09:28.216Z,972.56
2022-11-22T03:10:27.925Z,972.57
2022-11-22T03:11:27.937Z,972.50
2022-11-22T03:12:27.927Z,972.55
2022-11-22T03:13:27.902Z,972.53
2022-11-22T03:14:27.889Z,972.53
2022-11-22T03:15:27.882Z,972.51
2022-11-22T03:16:27.898Z,972.56
2022-11-22T03:17:27.867Z,972.57
2022-11-22T03:18:27.854Z,972.51
2022-11-22T03:19:28.038Z,972.56
2022-11-22T03:20:27.842Z,972.52
2022-11-22T03:21:27.863Z,972.51
2022-11-22T03:22:27.827Z,972.57
2022-11-22T03:23:27.817Z,972.58
2022-11-22T03:24:27.807Z,972.59
2022-11-22T03:25:27.801Z,972.63
2022-11-22T03:26:27.817Z,972.62
2022-11-22T03:27:27.785Z,972.57
2022-11-22T03:28:27.783Z,972.62
2022-11-22T03:29:28.007Z,972.57
2022-11-22T03:30:27.768Z,972.59
2022-11-22T03:31:27.781Z,972.52
2022-11-22T03:32:27.746Z,972.50
2022-11-22T03:33:27.741Z,972.55
2022-11-22T03:34:27.732Z,972.53
2022-11-22T03:35:27.721Z,972.50
2022-11-22T03:36:27.740Z,972.50
2022-11-22T03:37:27.708Z,972.53
2022-11-22T03:38:27.702Z,972.46
2022-11-22T03:39:28.011Z,972.51
2022-11-22T03:40:27.679Z,972.56
2022-11-22T03:41:27.701Z,972.53
2022-11-22T03:42:27.664Z,972.56
2022-11-22T03:43:27.659Z,972.57
2022-11-22T03:44:27.649Z,972.59
2022-11-22T03:45:27.636Z,972.61
2022-11-22T03:46:27.654Z,972.57
2022-11-22T03:47:27.625Z,972.55
2022-11-22T03:48:27.615Z,972.59
2022-11-22T03:49:27.697Z,972.59
2022-11-22T03:50:27.600Z,972.64
2022-11-22T03:51:27.622Z,972.65
2022-11-22T03:52:27.585Z,972.68
2022-11-22T03:53:27.579Z,972.67
2022-11-22T03:54:27.573Z,972.68
2022-11-22T03:55:27.565Z,972.66
2022-11-22T03:56:27.574Z,972.64
2022-11-22T03:57:27.544Z,972.62
2022-11-22T03:58:27.535Z,972.68
2022-11-22T03:59:27.720Z,972.74
2022-11-22T04:00:27.528Z,972.73
2022-11-22T04:01:27.602Z,972.70
2022-11-22T04:02:27.511Z,972.74
2022-11-22T04:03:27.503Z,972.78
2022-11-22T04:04:27.496Z,972.72
2022-11-22T04:05:27.489Z,972.75
2022-11-22T04:06:27.504Z,972.70
2022-11-22T04:07:27.522Z,972.76
2022-11-22T04:08:27.468Z,972.67
2022-11-22T04:09:27.794Z,972.71
2022-11-22T04:10:27.450Z,972.76
2022-11-22T04:11:27.469Z,972.73
2022-11-22T04:12:27.428Z,972.75
2022-11-22T04:13:27.427Z,972.76
2022-11-22T04:14:27.414Z,972.74
2022-11-22T04:15:27.406Z,972.80
2022-11-22T04:16:27.425Z,972.71
2022-11-22T04:17:27.392Z,972.80
2022-11-22T04:18:27.384Z,972.76
2022-11-22T04:19:27.503Z,972.81
2022-11-22T04:20:27.372Z,972.79
2022-11-22T04:21:27.392Z,972.86
2022-11-22T04:22:27.356Z,972.86
2022-11-22T04:23:33.578Z,972.89
2022-11-22T04:24:29.333Z,972.86
2022-11-22T04:25:27.329Z,972.86
2022-11-22T04:26:27.361Z,972.88
2022-11-22T04:27:27.317Z,972.83
2022-11-22T04:29:29.610Z,972.80
2022-11-22T04:30:27.289Z,972.87
2022-11-22T04:31:27.284Z,972.84
2022-11-22T04:32:27.306Z,972.83
2022-11-22T04:33:27.269Z,972.86
2022-11-22T04:34:27.262Z,972.91
2022-11-22T04:35:27.253Z,972.91
2022-11-22T04:36:28.276Z,972.92
2022-11-22T04:37:27.235Z,972.94
2022-11-22T04:38:27.219Z,972.87
2022-11-22T04:39:27.456Z,972.96
2022-11-22T04:40:27.212Z,972.92
2022-11-22T04:41:27.197Z,972.94
2022-11-22T04:42:27.214Z,972.84
2022-11-22T04:43:27.188Z,972.84
2022-11-22T04:44:27.172Z,972.91
2022-11-22T04:45:27.163Z,972.85
2022-11-22T04:46:27.198Z,972.81
2022-11-22T04:47:27.174Z,972.84
2022-11-22T04:48:27.142Z,972.87
2022-11-22T04:49:27.495Z,972.90
2022-11-22T04:50:27.132Z,972.93
2022-11-22T04:51:27.116Z,972.99
2022-11-22T04:52:27.131Z,972.91
2022-11-22T04:53:27.101Z,972.90
2022-11-22T04:54:27.092Z,972.96
2022-11-22T04:55:27.096Z,972.97
2022-11-22T04:56:27.079Z,973.08
2022-11-22T04:57:27.092Z,973.03
2022-11-22T04:58:27.061Z,973.05
2022-11-22T04:59:27.194Z,973.10
2022-11-22T05:00:27.044Z,973.09
2022-11-22T05:01:27.072Z,973.15
2022-11-22T05:02:27.056Z,973.10
2022-11-22T05:03:27.021Z,973.04
2022-11-22T05:04:27.015Z,973.06
2022-11-22T05:05:27.008Z,973.04
2022-11-22T05:06:26.994Z,973.07
2022-11-22T05:07:27.056Z,972.99
2022-11-22T05:08:26.983Z,973.02
2022-11-22T05:09:27.201Z,973.00
2022-11-22T05:10:27.415Z,973.00
2022-11-22T05:11:26.962Z,972.96
2022-11-22T05:12:26.985Z,972.98
2022-11-22T05:13:26.943Z,973.00
2022-11-22T05:14:26.937Z,973.07
2022-11-22T05:15:26.933Z,973.09
2022-11-22T05:16:26.923Z,973.15
2022-11-22T05:17:26.945Z,973.12
2022-11-22T05:18:26.907Z,973.08
2022-11-22T05:19:27.066Z,973.19
2022-11-22T05:20:26.889Z,973.16
2022-11-22T05:21:26.883Z,973.17
2022-11-22T05:22:26.905Z,973.11
2022-11-22T05:23:26.868Z,973.16
2022-11-22T05:24:26.858Z,973.11
2022-11-22T05:25:26.854Z,973.12
2022-11-22T05:26:26.852Z,973.12
2022-11-22T05:27:26.839Z,973.17
2022-11-22T05:28:26.854Z,973.16
2022-11-22T05:29:27.031Z,973.14
2022-11-22T05:30:26.816Z,973.14
2022-11-22T05:31:26.809Z,973.16
2022-11-22T05:32:26.794Z,973.12
2022-11-22T05:33:26.815Z,973.17
2022-11-22T05:34:26.781Z,973.13
2022-11-22T05:35:26.790Z,973.20
2022-11-22T05:36:26.769Z,973.16
2022-11-22T05:37:26.758Z,973.24
2022-11-22T05:38:26.778Z,973.26
2022-11-22T05:39:26.810Z,973.23
2022-11-22T05:40:26.741Z,973.25
2022-11-22T05:41:26.726Z,973.27
2022-11-22T05:42:26.717Z,973.36
2022-11-22T05:43:26.735Z,973.33
2022-11-22T05:44:26.706Z,973.33
2022-11-22T05:45:26.703Z,973.34
2022-11-22T05:46:26.689Z,973.32
2022-11-22T05:47:26.682Z,973.31
2022-11-22T05:48:26.717Z,973.33
2022-11-22T05:49:26.666Z,973.38
2022-11-22T05:50:26.667Z,973.30
2022-11-22T05:51:32.193Z,973.38
2022-11-22T05:52:28.639Z,973.38
2022-11-22T05:53:26.657Z,973.27
2022-11-22T05:54:26.626Z,973.36
2022-11-22T05:55:26.611Z,973.36
2022-11-22T05:56:26.608Z,973.33
2022-11-22T05:57:26.605Z,973.37
2022-11-22T05:58:26.617Z,973.37
2022-11-22T05:59:26.586Z,973.37
2022-11-22T06:00:26.582Z,973.40
2022-11-22T06:01:26.568Z,973.42
2022-11-22T06:02:26.645Z,973.42
2022-11-22T06:03:26.580Z,973.47
2022-11-22T06:04:26.546Z,973.47
2022-11-22T06:05:26.542Z,973.53
2022-11-22T06:06:26.528Z,973.58
2022-11-22T06:07:26.606Z,973.52
2022-11-22T06:08:26.513Z,973.50
2022-11-22T06:09:26.566Z,973.53
2022-11-22T06:10:26.494Z,973.49
2022-11-22T06:11:26.489Z,973.51
2022-11-22T06:12:26.483Z,973.49
2022-11-22T06:13:26.478Z,973.52
2022-11-22T06:14:26.496Z,973.51
2022-11-22T06:15:26.461Z,973.47
2022-11-22T06:16:26.450Z,973.47
2022-11-22T06:17:26.443Z,973.50
2022-11-22T06:18:26.436Z,973.49
2022-11-22T06:19:26.453Z,973.52
2022-11-22T06:20:26.418Z,973.52
2022-11-22T06:21:26.410Z,973.55
2022-11-22T06:22:26.403Z,973.61
2022-11-22T06:23:26.396Z,973.61
2022-11-22T06:24:26.409Z,973.61
2022-11-22T06:25:26.382Z,973.59
2022-11-22T06:26:26.371Z,973.62
2022-11-22T06:27:26.361Z,973.63
2022-11-22T06:28:26.353Z,973.54
2022-11-22T06:29:26.371Z,973.56
2022-11-22T06:30:26.335Z,973.65
2022-11-22T06:31:26.331Z,973.63
2022-11-22T06:32:26.321Z,973.61
2022-11-22T06:33:26.315Z,973.63
2022-11-22T06:34:26.333Z,973.63
2022-11-22T06:35:26.298Z,973.68
2022-11-22T06:36:26.289Z,973.69
2022-11-22T06:37:26.283Z,973.70
2022-11-22T06:38:26.272Z,973.71
2022-11-22T06:39:26.288Z,973.74
2022-11-22T06:40:26.260Z,973.72
2022-11-22T06:41:26.255Z,973.79
2022-11-22T06:42:26.241Z,973.83
2022-11-22T06:43:26.241Z,973.82
2022-11-22T06:44:26.252Z,973.81
2022-11-22T06:45:26.225Z,973.81
2022-11-22T06:46:26.213Z,973.84
2022-11-22T06:47:26.203Z,973.80
2022-11-22T06:48:26.193Z,973.84
2022-11-22T06:49:26.226Z,973.81
2022-11-22T06:50:26.182Z,973.87
2022-11-22T06:51:26.176Z,973.84
2022-11-22T06:52:26.162Z,973.85
2022-11-22T06:53:45.693Z,973.80
2022-11-22T06:54:28.170Z,973.84
2022-11-22T06:55:49.598Z,973.84
2022-11-22T06:56:28.126Z,973.78
2022-11-22T06:57:26.116Z,973.82
2022-11-22T06:58:26.112Z,973.82
2022-11-22T06:59:26.156Z,973.85
2022-11-22T07:00:26.094Z,973.87
2022-11-22T07:01:26.132Z,973.91
2022-11-22T07:02:26.077Z,973.93
2022-11-22T07:03:26.072Z,973.95
2022-11-22T07:04:26.087Z,974.07
2022-11-22T07:05:26.509Z,974.01
2022-11-22T07:06:26.046Z,974.07
2022-11-22T07:07:26.070Z,974.09
2022-11-22T07:08:26.027Z,974.13
2022-11-22T07:09:26.076Z,974.08
2022-11-22T07:10:26.014Z,974.11
2022-11-22T07:11:26.017Z,974.19
2022-11-22T07:12:25.999Z,974.21
2022-11-22T07:13:25.993Z,974.17
2022-11-22T07:14:26.016Z,974.15
2022-11-22T07:15:25.976Z,974.14
2022-11-22T07:16:25.962Z,974.16
2022-11-22T07:17:25.958Z,974.11
2022-11-22T07:18:25.949Z,974.12
2022-11-22T07:19:25.969Z,974.16
2022-11-22T07:20:25.936Z,974.22
2022-11-22T07:21:25.927Z,974.27
2022-11-22T07:22:25.922Z,974.26
2022-11-22T07:23:25.912Z,974.24
2022-11-22T07:24:25.929Z,974.33
2022-11-22T07:25:25.896Z,974.31
2022-11-22T07:26:25.888Z,974.27
2022-11-22T07:27:25.879Z,974.30
2022-11-22T07:28:25.869Z,974.34
2022-11-22T07:29:25.881Z,974.33
2022-11-22T07:30:26.856Z,974.33
2022-11-22T07:31:25.844Z,974.39
2022-11-22T07:32:25.838Z,974.34
2022-11-22T07:33:25.835Z,974.39
2022-11-22T07:34:25.849Z,974.40
2022-11-22T07:35:25.828Z,974.44
2022-11-22T07:36:25.808Z,974.37
2022-11-22T07:37:25.803Z,974.35
2022-11-22T07:38:25.793Z,974.43
2022-11-22T07:39:25.812Z,974.43
2022-11-22T07:40:25.780Z,974.48
2022-11-22T07:41:25.765Z,974.52
2022-11-22T07:42:26.492Z,974.52
2022-11-22T07:43:26.756Z,974.46
2022-11-22T07:44:25.771Z,974.50
2022-11-22T07:45:25.734Z,974.48
2022-11-22T07:46:25.729Z,974.43
2022-11-22T07:47:25.725Z,974.52
2022-11-22T07:48:25.716Z,974.52
2022-11-22T07:49:25.744Z,974.55
2022-11-22T07:50:25.696Z,974.52
2022-11-22T07:51:25.691Z,974.55
2022-11-22T07:52:25.678Z,974.62
2022-11-22T07:53:26.142Z,974.66
2022-11-22T07:54:25.660Z,974.61
2022-11-22T07:55:25.680Z,974.59
2022-11-22T07:56:25.655Z,974.57
2022-11-22T07:57:25.641Z,974.59
2022-11-22T07:58:25.639Z,974.62
2022-11-22T07:59:25.627Z,974.62
2022-11-22T08:00:25.679Z,974.73
2022-11-22T08:01:25.654Z,974.68
2022-11-22T08:02:25.601Z,974.71
2022-11-22T08:03:29.227Z,974.70
2022-11-22T08:04:26.594Z,974.69
2022-11-22T08:05:25.599Z,974.71
2022-11-22T08:06:25.643Z,974.66
2022-11-22T08:07:25.611Z,974.73
2022-11-22T08:08:25.563Z,974.70
2022-11-22T08:09:25.546Z,974.79
2022-11-22T08:10:25.617Z,974.73
2022-11-22T08:11:25.529Z,974.67
2022-11-22T08:12:25.525Z,974.70
2022-11-22T08:13:25.527Z,974.69
2022-11-22T08:14:25.519Z,974.72
2022-11-22T08:15:25.528Z,974.73
2022-11-22T08:16:25.495Z,974.74
2022-11-22T08:17:25.495Z,974.83
2022-11-22T08:18:25.482Z,974.80
2022-11-22T08:19:25.472Z,974.77
2022-11-22T08:20:25.527Z,974.80
2022-11-22T08:21:25.454Z,974.83
2022-11-22T08:22:25.523Z,974.75
2022-11-22T08:23:25.448Z,974.80
2022-11-22T08:24:25.434Z,974.73
2022-11-22T08:25:25.449Z,974.80
2022-11-22T08:26:25.419Z,974.80
2022-11-22T08:27:25.438Z,974.87
2022-11-22T08:28:25.406Z,974.88
2022-11-22T08:29:25.400Z,974.85
2022-11-22T08:30:25.478Z,974.86
2022-11-22T08:31:25.377Z,974.87
2022-11-22T08:32:25.392Z,974.91
2022-11-22T08:33:25.359Z,974.85
2022-11-22T08:34:25.354Z,974.98
2022-11-22T08:35:25.344Z,975.01
2022-11-22T08:36:25.338Z,975.00
2022-11-22T08:37:25.353Z,975.05
2022-11-22T08:38:25.404Z,974.99
2022-11-22T08:39:25.312Z,974.94
2022-11-22T08:40:25.368Z,975.01
2022-11-22T08:41:25.294Z,975.01
2022-11-22T08:42:25.311Z,975.02
2022-11-22T08:43:25.296Z,975.07
2022-11-22T08:44:25.271Z,975.01
2022-11-22T08:45:25.263Z,975.03
2022-11-22T08:46:25.258Z,975.06
2022-11-22T08:47:25.277Z,975.05
2022-11-22T08:48:25.267Z,975.08
2022-11-22T08:49:25.233Z,975.10
2022-11-22T08:50:25.222Z,975.10
2022-11-22T08:51:25.215Z,975.08
2022-11-22T08:52:25.232Z,975.08
2022-11-22T08:53:25.200Z,975.09
2022-11-22T08:54:25.272Z,975.11
2022-11-22T08:55:25.182Z,975.05
2022-11-22T08:56:25.175Z,975.03
2022-11-22T08:57:25.190Z,975.01
2022-11-22T08:58:25.153Z,975.06
2022-11-22T08:59:25.212Z,975.13
2022-11-22T09:00:28.630Z,975.12
2022-11-22T09:01:27.196Z,975.14
2022-11-22T09:02:25.156Z,975.14
2022-11-22T09:03:25.124Z,975.21
2022-11-22T09:04:25.108Z,975.16
2022-11-22T09:05:25.230Z,975.23
2022-11-22T09:08:28.897Z,975.29
2022-11-22T09:09:40.490Z,975.30
2022-11-22T09:10:27.131Z,975.36
2022-11-22T09:11:26.057Z,975.40
2022-11-22T09:12:25.049Z,975.38
2022-11-22T09:13:25.063Z,975.35
2022-11-22T09:14:25.037Z,975.39
2022-11-22T09:15:25.021Z,975.36
2022-11-22T09:16:25.015Z,975.36
2022-11-22T09:17:25.019Z,975.28
2022-11-22T09:18:25.024Z,975.33
2022-11-22T09:19:24.998Z,975.35
2022-11-22T09:20:24.984Z,975.31
2022-11-22T09:21:24.975Z,975.32
2022-11-22T09:22:28.397Z,975.28
2022-11-22T09:23:25.983Z,975.31
2022-11-22T09:24:24.950Z,975.29
2022-11-22T09:25:24.944Z,975.30
2022-11-22T09:26:25.021Z,975.32
2022-11-22T09:27:24.929Z,975.28
2022-11-22T09:28:24.950Z,975.36
2022-11-22T09:29:24.924Z,975.48
2022-11-22T09:30:24.909Z,975.50
2022-11-22T09:31:24.907Z,975.42
2022-11-22T09:32:28.132Z,975.44
2022-11-22T09:33:25.940Z,975.44
2022-11-22T09:34:24.878Z,975.40
2022-11-22T09:35:24.868Z,975.39
2022-11-22T09:36:24.867Z,975.37
2022-11-22T09:37:24.849Z,975.33
2022-11-22T09:38:24.870Z,975.33
2022-11-22T09:39:24.820Z,975.36
2022-11-22T09:40:25.830Z,975.38
2022-11-22T09:41:24.823Z,975.35
2022-11-22T09:42:24.887Z,975.32
2022-11-22T09:43:24.830Z,975.39
2022-11-22T09:44:24.794Z,975.40
2022-11-22T09:45:24.785Z,975.37
2022-11-22T09:46:24.780Z,975.43
2022-11-22T09:47:24.772Z,975.38
2022-11-22T09:48:24.787Z,975.46
2022-11-22T09:49:24.758Z,975.43
2022-11-22T09:50:24.743Z,975.48
2022-11-22T09:51:24.740Z,975.50
2022-11-22T09:52:24.731Z,975.46
2022-11-22T09:53:24.751Z,975.43
2022-11-22T09:54:24.709Z,975.46
2022-11-22T09:55:24.709Z,975.47
2022-11-22T09:56:24.697Z,975.43
2022-11-22T09:57:24.688Z,975.49
2022-11-22T09:58:24.753Z,975.45
2022-11-22T09:59:24.700Z,975.41
2022-11-22T10:00:24.665Z,975.46
2022-11-22T10:01:24.702Z,975.40
2022-11-22T10:02:24.649Z,975.40
2022-11-22T10:03:24.647Z,975.39
2022-11-22T10:04:24.663Z,975.37
2022-11-22T10:05:24.632Z,975.25
2022-11-22T10:06:24.623Z,975.35
2022-11-22T10:07:24.764Z,975.33
2022-11-22T10:08:24.604Z,975.38
2022-11-22T10:09:24.634Z,975.41
2022-11-22T10:10:24.599Z,975.36
2022-11-22T10:11:24.581Z,975.29
2022-11-22T10:12:24.574Z,975.26
2022-11-22T10:13:24.556Z,975.20
2022-11-22T10:14:25.678Z,975.22
2022-11-22T10:15:24.549Z,975.19
2022-11-22T10:16:24.540Z,975.23
2022-11-22T10:17:24.543Z,975.13
2022-11-22T10:18:24.534Z,975.14
2022-11-22T10:19:24.548Z,975.13
2022-11-22T10:20:24.514Z,975.13
2022-11-22T10:21:24.506Z,975.15
2022-11-22T10:22:24.495Z,975.16
2022-11-22T10:23:24.489Z,975.14
2022-11-22T10:24:24.507Z,975.14
2022-11-22T10:25:24.468Z,975.17
2022-11-22T10:26:24.459Z,975.16
2022-11-22T10:27:24.458Z,975.17
2022-11-22T10:28:24.450Z,975.17
2022-11-22T10:29:24.463Z,975.15
2022-11-22T10:30:24.509Z,975.16
2022-11-22T10:31:24.427Z,975.12
2022-11-22T10:32:24.416Z,975.11
2022-11-22T10:33:24.405Z,975.17
2022-11-22T10:34:24.428Z,975.07
2022-11-22T10:35:24.394Z,975.10
2022-11-22T10:36:24.384Z,975.06
2022-11-22T10:37:24.382Z,975.03
2022-11-22T10:38:24.374Z,974.93
2022-11-22T10:39:24.395Z,974.91
2022-11-22T10:40:24.361Z,974.91
2022-11-22T10:41:24.352Z,974.95
2022-11-22T10:42:24.343Z,974.98
2022-11-22T10:43:24.335Z,974.98
2022-11-22T10:44:24.352Z,974.94
2022-11-22T10:45:24.321Z,974.97
2022-11-22T10:46:24.399Z,974.92
2022-11-22T10:47:24.306Z,974.96
2022-11-22T10:48:24.299Z,974.95
2022-11-22T10:49:24.316Z,975.01
2022-11-22T10:50:24.279Z,974.94
2022-11-22T10:51:24.272Z,974.94
2022-11-22T10:52:24.271Z,974.95
2022-11-22T10:53:24.459Z,974.93
2022-11-22T10:54:24.277Z,974.95
2022-11-22T10:55:24.245Z,974.98
2022-11-22T10:56:24.233Z,975.08
2022-11-22T10:57:24.230Z,975.03
2022-11-22T10:58:24.220Z,975.05
2022-11-22T10:59:28.536Z,974.98
2022-11-22T11:00:25.223Z,974.98
2022-11-22T11:01:24.236Z,974.99
2022-11-22T11:02:25.280Z,975.10
2022-11-22T11:03:24.184Z,974.99
2022-11-22T11:04:24.167Z,975.04
2022-11-22T11:05:24.282Z,975.04
2022-11-22T11:06:33.458Z,975.04
2022-11-22T11:07:26.196Z,975.04
2022-11-22T11:08:47.503Z,975.02
2022-11-22T11:10:32.631Z,975.07
2022-11-22T11:11:26.114Z,975.12
2022-11-22T11:12:24.109Z,975.03
2022-11-22T11:13:24.132Z,975.04
2022-11-22T11:14:24.093Z,975.05
2022-11-22T11:15:24.114Z,975.00
2022-11-22T11:16:24.078Z,975.03
2022-11-22T11:17:24.083Z,975.04
2022-11-22T11:18:24.138Z,975.03
2022-11-22T11:19:24.056Z,975.14
2022-11-22T11:20:24.075Z,975.09
2022-11-22T11:21:24.039Z,975.08
2022-11-22T11:22:44.522Z,975.07
2022-11-22T11:23:26.035Z,975.07
2022-11-22T11:24:24.014Z,975.04
2022-11-22T11:25:24.031Z,975.08
2022-11-22T11:26:24.003Z,975.05
2022-11-22T11:27:23.992Z,975.08
2022-11-22T11:28:23.987Z,975.10
2022-11-22T11:29:23.979Z,975.10
2022-11-22T11:30:24.001Z,975.11
2022-11-22T11:31:23.960Z,975.15
2022-11-22T11:32:23.954Z,975.11
2022-11-22T11:33:23.952Z,975.17
2022-11-22T11:34:24.017Z,975.18
2022-11-22T11:35:23.952Z,975.11
2022-11-22T11:36:23.934Z,975.14
2022-11-22T11:37:23.925Z,975.13
2022-11-22T11:38:23.908Z,975.14
2022-11-22T11:39:23.903Z,975.10
2022-11-22T11:40:23.912Z,975.16
2022-11-22T11:41:23.890Z,975.14
2022-11-22T11:42:23.882Z,975.14
2022-11-22T11:43:23.869Z,975.08
2022-11-22T11:44:23.875Z,975.14
2022-11-22T11:45:23.877Z,975.18
2022-11-22T11:46:23.845Z,975.15
2022-11-22T11:47:23.840Z,975.25
2022-11-22T11:48:23.827Z,975.24
2022-11-22T11:49:23.820Z,975.19
2022-11-22T11:50:24.801Z,975.16
2022-11-22T11:51:24.808Z,975.28
2022-11-22T11:52:23.804Z,975.23
2022-11-22T11:53:23.789Z,975.25
2022-11-22T11:54:23.786Z,975.20
2022-11-22T11:55:23.799Z,975.20
2022-11-22T11:56:23.768Z,975.14
2022-11-22T11:57:23.760Z,975.27
2022-11-22T11:58:23.749Z,975.22
2022-11-22T11:59:23.749Z,975.17
2022-11-22T12:00:23.768Z,975.17
2022-11-22T12:01:23.734Z,975.17
2022-11-22T12:02:23.832Z,975.08
2022-11-22T12:03:23.710Z,975.06
2022-11-22T12:04:23.709Z,975.10
2022-11-22T12:05:23.721Z,975.05
2022-11-22T12:06:23.759Z,975.13
2022-11-22T12:07:23.735Z,975.14
2022-11-22T12:08:23.672Z,975.15
2022-11-22T12:09:23.668Z,975.12
2022-11-22T12:10:23.655Z,975.16
2022-11-22T12:11:23.679Z,975.10
2022-11-22T12:12:23.637Z,975.16
2022-11-22T12:13:23.635Z,975.18
2022-11-22T12:14:23.627Z,975.12
2022-11-22T12:15:23.615Z,975.13
2022-11-22T12:16:23.639Z,975.12
2022-11-22T12:17:23.619Z,975.08
2022-11-22T12:18:23.596Z,975.06
2022-11-22T12:19:25.121Z,975.08
2022-11-22T12:20:24.584Z,975.13
2022-11-22T12:21:23.595Z,975.07
2022-11-22T12:22:48.127Z,975.11
2022-11-22T12:23:25.555Z,975.04
2022-11-22T12:25:32.466Z,975.10
2022-11-22T12:26:25.564Z,975.10
2022-11-22T12:27:23.523Z,975.13
2022-11-22T12:28:23.519Z,975.09
2022-11-22T12:29:23.510Z,975.08
2022-11-22T12:30:23.502Z,975.10
2022-11-22T12:31:23.520Z,975.07
2022-11-22T12:32:23.490Z,975.12
2022-11-22T12:33:23.483Z,975.10